sensor_id;sensor_type;location;lat;lon;timestamp;P1;durP1;ratioP1;P2;durP2;ratioP2
75645;SDS011;64237;52.438;13.240;2023-03-01T00:01:23;7.90;;;2.95;;
75645;SDS011;64237;52.438;13.240;2023-03-01T00:03:51;11.65;;;3.47;;
75645;SDS011;64237;52.438;13.240;2023-03-01T00:06:17;11.48;;;3.45;;
75645;SDS011;64237;52.438;13.240;2023-03-01T00:08:43;10.40;;;3.35;;
75645;SDS011;64237;52.438;13.240;2023-03-01T00:11:16;10.48;;;3.70;;
75645;SDS011;64237;52.438;13.240;2023-03-01T00:13:47;10.98;;;3.63;;
75645;SDS011;64237;52.438;13.240;2023-03-01T00:16:19;9.77;;;3.53;;
75645;SDS011;64237;52.438;13.240;2023-03-01T00:18:46;7.60;;;3.00;;
75645;SDS011;64237;52.438;13.240;2023-03-01T00:21:11;8.80;;;3.28;;
75645;SDS011;64237;52.438;13.240;2023-03-01T00:23:37;9.57;;;3.42;;
75645;SDS011;64237;52.438;13.240;2023-03-01T00:26:06;11.55;;;3.65;;
75645;SDS011;64237;52.438;13.240;2023-03-01T00:28:33;11.38;;;3.15;;
75645;SDS011;64237;52.438;13.240;2023-03-01T00:31:05;10.48;;;3.53;;
75645;SDS011;64237;52.438;13.240;2023-03-01T00:33:32;10.18;;;3.53;;
75645;SDS011;64237;52.438;13.240;2023-03-01T00:35:58;10.82;;;3.25;;
75645;SDS011;64237;52.438;13.240;2023-03-01T00:38:24;7.50;;;3.08;;
75645;SDS011;64237;52.438;13.240;2023-03-01T00:40:49;8.00;;;3.17;;
75645;SDS011;64237;52.438;13.240;2023-03-01T00:43:14;8.95;;;3.08;;
75645;SDS011;64237;52.438;13.240;2023-03-01T00:45:40;9.00;;;3.00;;
75645;SDS011;64237;52.438;13.240;2023-03-01T00:48:05;9.32;;;3.10;;
75645;SDS011;64237;52.438;13.240;2023-03-01T00:50:31;10.23;;;3.38;;
75645;SDS011;64237;52.438;13.240;2023-03-01T00:52:56;12.30;;;3.22;;
75645;SDS011;64237;52.438;13.240;2023-03-01T00:55:22;11.18;;;3.47;;
75645;SDS011;64237;52.438;13.240;2023-03-01T00:57:48;9.10;;;3.40;;
75645;SDS011;64237;52.438;13.240;2023-03-01T01:00:14;11.05;;;3.33;;
75645;SDS011;64237;52.438;13.240;2023-03-01T01:02:40;10.35;;;3.47;;
75645;SDS011;64237;52.438;13.240;2023-03-01T01:05:05;11.10;;;3.90;;
75645;SDS011;64237;52.438;13.240;2023-03-01T01:07:31;10.63;;;3.83;;
75645;SDS011;64237;52.438;13.240;2023-03-01T01:09:56;9.68;;;3.28;;
75645;SDS011;64237;52.438;13.240;2023-03-01T01:12:21;9.95;;;3.72;;
75645;SDS011;64237;52.438;13.240;2023-03-01T01:14:47;10.57;;;3.92;;
75645;SDS011;64237;52.438;13.240;2023-03-01T01:17:12;12.00;;;3.60;;
75645;SDS011;64237;52.438;13.240;2023-03-01T01:19:38;9.77;;;3.35;;
75645;SDS011;64237;52.438;13.240;2023-03-01T01:22:03;11.50;;;3.75;;
75645;SDS011;64237;52.438;13.240;2023-03-01T01:24:29;12.02;;;3.75;;
75645;SDS011;64237;52.438;13.240;2023-03-01T01:26:54;12.00;;;4.00;;
75645;SDS011;64237;52.438;13.240;2023-03-01T01:29:19;10.55;;;3.60;;
75645;SDS011;64237;52.438;13.240;2023-03-01T01:31:45;16.92;;;3.70;;
75645;SDS011;64237;52.438;13.240;2023-03-01T01:34:17;10.52;;;3.88;;
75645;SDS011;64237;52.438;13.240;2023-03-01T01:36:48;10.80;;;3.58;;
75645;SDS011;64237;52.438;13.240;2023-03-01T01:39:15;11.77;;;3.90;;
75645;SDS011;64237;52.438;13.240;2023-03-01T01:41:41;9.82;;;3.53;;
75645;SDS011;64237;52.438;13.240;2023-03-01T01:46:44;11.00;;;4.00;;
75645;SDS011;64237;52.438;13.240;2023-03-01T01:49:19;12.05;;;4.28;;
75645;SDS011;64237;52.438;13.240;2023-03-01T01:52:02;9.23;;;3.10;;
75645;SDS011;64237;52.438;13.240;2023-03-01T01:54:40;10.82;;;4.00;;
75645;SDS011;64237;52.438;13.240;2023-03-01T01:57:14;11.57;;;3.90;;
75645;SDS011;64237;52.438;13.240;2023-03-01T01:59:43;10.18;;;3.40;;
75645;SDS011;64237;52.438;13.240;2023-03-01T02:02:15;10.85;;;3.83;;
75645;SDS011;64237;52.438;13.240;2023-03-01T02:04:40;10.43;;;3.45;;
75645;SDS011;64237;52.438;13.240;2023-03-01T02:07:09;9.55;;;3.78;;
75645;SDS011;64237;52.438;13.240;2023-03-01T02:09:35;10.98;;;3.50;;
75645;SDS011;64237;52.438;13.240;2023-03-01T02:12:02;9.73;;;3.50;;
75645;SDS011;64237;52.438;13.240;2023-03-01T02:14:29;8.82;;;3.40;;
75645;SDS011;64237;52.438;13.240;2023-03-01T02:16:54;12.30;;;4.20;;
75645;SDS011;64237;52.438;13.240;2023-03-01T02:19:43;8.70;;;3.45;;
75645;SDS011;64237;52.438;13.240;2023-03-01T02:22:17;9.70;;;3.70;;
75645;SDS011;64237;52.438;13.240;2023-03-01T02:30:10;11.53;;;3.57;;
75645;SDS011;64237;52.438;13.240;2023-03-01T02:32:37;10.50;;;3.63;;
75645;SDS011;64237;52.438;13.240;2023-03-01T02:35:06;16.08;;;4.35;;
75645;SDS011;64237;52.438;13.240;2023-03-01T02:37:36;9.65;;;3.30;;
75645;SDS011;64237;52.438;13.240;2023-03-01T02:40:04;10.52;;;4.13;;
75645;SDS011;64237;52.438;13.240;2023-03-01T02:42:37;8.77;;;3.20;;
75645;SDS011;64237;52.438;13.240;2023-03-01T02:45:26;8.45;;;3.33;;
75645;SDS011;64237;52.438;13.240;2023-03-01T02:47:55;12.52;;;3.50;;
75645;SDS011;64237;52.438;13.240;2023-03-01T02:52:55;12.68;;;4.22;;
75645;SDS011;64237;52.438;13.240;2023-03-01T02:55:26;7.75;;;3.13;;
75645;SDS011;64237;52.438;13.240;2023-03-01T02:57:52;10.18;;;3.83;;
75645;SDS011;64237;52.438;13.240;2023-03-01T03:00:24;14.85;;;4.05;;
75645;SDS011;64237;52.438;13.240;2023-03-01T03:02:54;11.73;;;4.30;;
75645;SDS011;64237;52.438;13.240;2023-03-01T03:05:26;9.32;;;3.53;;
75645;SDS011;64237;52.438;13.240;2023-03-01T03:07:53;10.55;;;4.05;;
75645;SDS011;64237;52.438;13.240;2023-03-01T03:10:23;11.65;;;4.15;;
75645;SDS011;64237;52.438;13.240;2023-03-01T03:12:55;9.50;;;4.00;;
75645;SDS011;64237;52.438;13.240;2023-03-01T03:15:23;11.35;;;4.47;;
75645;SDS011;64237;52.438;13.240;2023-03-01T03:17:50;9.25;;;3.63;;
75645;SDS011;64237;52.438;13.240;2023-03-01T03:20:17;11.10;;;3.67;;
75645;SDS011;64237;52.438;13.240;2023-03-01T03:22:45;10.48;;;4.50;;
75645;SDS011;64237;52.438;13.240;2023-03-01T03:25:15;10.52;;;4.28;;
75645;SDS011;64237;52.438;13.240;2023-03-01T03:27:41;13.60;;;4.25;;
75645;SDS011;64237;52.438;13.240;2023-03-01T03:30:09;10.27;;;3.72;;
75645;SDS011;64237;52.438;13.240;2023-03-01T03:32:38;10.25;;;3.72;;
75645;SDS011;64237;52.438;13.240;2023-03-01T03:35:07;10.48;;;4.25;;
75645;SDS011;64237;52.438;13.240;2023-03-01T03:37:40;10.60;;;3.65;;
75645;SDS011;64237;52.438;13.240;2023-03-01T03:40:25;9.63;;;3.65;;
75645;SDS011;64237;52.438;13.240;2023-03-01T03:42:52;11.43;;;3.92;;
75645;SDS011;64237;52.438;13.240;2023-03-01T03:45:17;12.73;;;4.15;;
75645;SDS011;64237;52.438;13.240;2023-03-01T03:47:43;8.05;;;3.47;;
75645;SDS011;64237;52.438;13.240;2023-03-01T03:50:10;9.65;;;3.45;;
75645;SDS011;64237;52.438;13.240;2023-03-01T03:52:36;14.30;;;3.90;;
75645;SDS011;64237;52.438;13.240;2023-03-01T03:55:02;9.57;;;3.80;;
75645;SDS011;64237;52.438;13.240;2023-03-01T03:57:28;11.23;;;4.13;;
75645;SDS011;64237;52.438;13.240;2023-03-01T03:59:53;12.90;;;3.87;;
75645;SDS011;64237;52.438;13.240;2023-03-01T04:02:18;10.60;;;4.30;;
75645;SDS011;64237;52.438;13.240;2023-03-01T04:04:47;9.80;;;3.58;;
75645;SDS011;64237;52.438;13.240;2023-03-01T04:07:14;14.13;;;4.30;;
75645;SDS011;64237;52.438;13.240;2023-03-01T04:09:40;11.63;;;4.28;;
75645;SDS011;64237;52.438;13.240;2023-03-01T04:12:08;11.07;;;3.83;;
75645;SDS011;64237;52.438;13.240;2023-03-01T04:14:34;9.65;;;3.38;;
75645;SDS011;64237;52.438;13.240;2023-03-01T04:16:59;12.68;;;3.58;;
75645;SDS011;64237;52.438;13.240;2023-03-01T04:19:25;10.95;;;3.83;;
75645;SDS011;64237;52.438;13.240;2023-03-01T04:21:51;10.50;;;3.58;;
75645;SDS011;64237;52.438;13.240;2023-03-01T04:24:17;8.82;;;3.35;;
75645;SDS011;64237;52.438;13.240;2023-03-01T04:26:43;15.18;;;4.38;;
75645;SDS011;64237;52.438;13.240;2023-03-01T04:29:08;9.65;;;3.78;;
75645;SDS011;64237;52.438;13.240;2023-03-01T04:31:33;15.20;;;4.60;;
75645;SDS011;64237;52.438;13.240;2023-03-01T04:33:59;11.02;;;3.53;;
75645;SDS011;64237;52.438;13.240;2023-03-01T04:36:26;10.85;;;3.47;;
75645;SDS011;64237;52.438;13.240;2023-03-01T04:38:53;9.60;;;3.60;;
75645;SDS011;64237;52.438;13.240;2023-03-01T04:41:20;11.82;;;3.78;;
75645;SDS011;64237;52.438;13.240;2023-03-01T04:43:46;11.80;;;4.28;;
75645;SDS011;64237;52.438;13.240;2023-03-01T04:46:12;12.93;;;4.03;;
75645;SDS011;64237;52.438;13.240;2023-03-01T04:48:40;13.15;;;3.70;;
75645;SDS011;64237;52.438;13.240;2023-03-01T04:51:07;8.45;;;3.58;;
75645;SDS011;64237;52.438;13.240;2023-03-01T04:53:33;10.82;;;3.58;;
75645;SDS011;64237;52.438;13.240;2023-03-01T04:56:01;12.20;;;3.92;;
75645;SDS011;64237;52.438;13.240;2023-03-01T04:58:27;9.23;;;3.45;;
75645;SDS011;64237;52.438;13.240;2023-03-01T05:00:53;12.25;;;4.18;;
75645;SDS011;64237;52.438;13.240;2023-03-01T05:03:19;11.25;;;3.78;;
75645;SDS011;64237;52.438;13.240;2023-03-01T05:05:45;11.77;;;3.70;;
75645;SDS011;64237;52.438;13.240;2023-03-01T05:08:13;11.10;;;3.80;;
75645;SDS011;64237;52.438;13.240;2023-03-01T05:10:45;12.23;;;4.15;;
75645;SDS011;64237;52.438;13.240;2023-03-01T05:13:14;12.25;;;3.95;;
75645;SDS011;64237;52.438;13.240;2023-03-01T05:15:45;12.45;;;4.15;;
75645;SDS011;64237;52.438;13.240;2023-03-01T05:18:21;11.10;;;3.80;;
75645;SDS011;64237;52.438;13.240;2023-03-01T05:20:51;10.50;;;3.58;;
75645;SDS011;64237;52.438;13.240;2023-03-01T05:23:17;10.23;;;3.70;;
75645;SDS011;64237;52.438;13.240;2023-03-01T05:25:43;9.95;;;3.80;;
75645;SDS011;64237;52.438;13.240;2023-03-01T05:28:12;11.43;;;3.35;;
75645;SDS011;64237;52.438;13.240;2023-03-01T05:30:38;13.80;;;3.78;;
75645;SDS011;64237;52.438;13.240;2023-03-01T05:33:04;11.15;;;3.85;;
75645;SDS011;64237;52.438;13.240;2023-03-01T05:35:31;9.10;;;3.67;;
75645;SDS011;64237;52.438;13.240;2023-03-01T05:37:57;9.70;;;3.75;;
75645;SDS011;64237;52.438;13.240;2023-03-01T05:40:23;13.00;;;3.92;;
75645;SDS011;64237;52.438;13.240;2023-03-01T05:42:53;12.98;;;4.47;;
75645;SDS011;64237;52.438;13.240;2023-03-01T05:45:20;10.35;;;3.88;;
75645;SDS011;64237;52.438;13.240;2023-03-01T05:47:47;13.20;;;4.43;;
75645;SDS011;64237;52.438;13.240;2023-03-01T05:50:17;8.43;;;3.80;;
75645;SDS011;64237;52.438;13.240;2023-03-01T05:52:45;12.10;;;4.00;;
75645;SDS011;64237;52.438;13.240;2023-03-01T05:55:13;10.65;;;3.53;;
75645;SDS011;64237;52.438;13.240;2023-03-01T05:57:40;13.50;;;4.70;;
75645;SDS011;64237;52.438;13.240;2023-03-01T06:00:05;9.65;;;3.90;;
75645;SDS011;64237;52.438;13.240;2023-03-01T06:02:32;9.98;;;3.67;;
75645;SDS011;64237;52.438;13.240;2023-03-01T06:04:57;8.63;;;3.58;;
75645;SDS011;64237;52.438;13.240;2023-03-01T06:07:23;11.57;;;4.15;;
75645;SDS011;64237;52.438;13.240;2023-03-01T06:09:48;12.68;;;4.10;;
75645;SDS011;64237;52.438;13.240;2023-03-01T06:12:13;10.57;;;3.67;;
75645;SDS011;64237;52.438;13.240;2023-03-01T06:14:39;11.68;;;3.85;;
75645;SDS011;64237;52.438;13.240;2023-03-01T06:17:04;12.83;;;4.07;;
75645;SDS011;64237;52.438;13.240;2023-03-01T06:19:29;12.50;;;4.20;;
75645;SDS011;64237;52.438;13.240;2023-03-01T06:21:54;9.63;;;4.00;;
75645;SDS011;64237;52.438;13.240;2023-03-01T06:24:20;11.13;;;4.53;;
75645;SDS011;64237;52.438;13.240;2023-03-01T06:26:45;7.97;;;3.17;;
75645;SDS011;64237;52.438;13.240;2023-03-01T06:29:10;11.53;;;4.10;;
75645;SDS011;64237;52.438;13.240;2023-03-01T06:31:36;9.38;;;4.03;;
75645;SDS011;64237;52.438;13.240;2023-03-01T06:34:01;11.40;;;4.00;;
75645;SDS011;64237;52.438;13.240;2023-03-01T06:36:27;9.65;;;3.58;;
75645;SDS011;64237;52.438;13.240;2023-03-01T06:38:52;10.32;;;3.90;;
75645;SDS011;64237;52.438;13.240;2023-03-01T06:41:18;9.63;;;3.63;;
75645;SDS011;64237;52.438;13.240;2023-03-01T06:43:43;11.63;;;4.53;;
75645;SDS011;64237;52.438;13.240;2023-03-01T06:46:08;11.97;;;4.63;;
75645;SDS011;64237;52.438;13.240;2023-03-01T06:48:34;11.80;;;3.85;;
75645;SDS011;64237;52.438;13.240;2023-03-01T06:51:00;12.20;;;4.97;;
75645;SDS011;64237;52.438;13.240;2023-03-01T06:53:26;13.80;;;4.93;;
75645;SDS011;64237;52.438;13.240;2023-03-01T06:55:55;11.77;;;3.83;;
75645;SDS011;64237;52.438;13.240;2023-03-01T06:58:21;10.20;;;4.40;;
75645;SDS011;64237;52.438;13.240;2023-03-01T07:00:46;10.43;;;4.40;;
75645;SDS011;64237;52.438;13.240;2023-03-01T07:03:12;15.07;;;4.47;;
75645;SDS011;64237;52.438;13.240;2023-03-01T07:05:37;10.77;;;4.78;;
75645;SDS011;64237;52.438;13.240;2023-03-01T07:08:02;12.57;;;3.73;;
75645;SDS011;64237;52.438;13.240;2023-03-01T07:10:28;11.05;;;4.43;;
75645;SDS011;64237;52.438;13.240;2023-03-01T07:12:56;13.45;;;4.43;;
75645;SDS011;64237;52.438;13.240;2023-03-01T07:15:23;11.43;;;4.53;;
75645;SDS011;64237;52.438;13.240;2023-03-01T07:17:49;12.43;;;4.72;;
75645;SDS011;64237;52.438;13.240;2023-03-01T07:20:15;14.93;;;4.85;;
75645;SDS011;64237;52.438;13.240;2023-03-01T07:22:42;15.52;;;5.30;;
75645;SDS011;64237;52.438;13.240;2023-03-01T07:25:08;13.70;;;4.78;;
75645;SDS011;64237;52.438;13.240;2023-03-01T07:27:34;14.57;;;5.22;;
75645;SDS011;64237;52.438;13.240;2023-03-01T07:30:00;14.57;;;4.90;;
75645;SDS011;64237;52.438;13.240;2023-03-01T07:32:28;13.50;;;4.53;;
75645;SDS011;64237;52.438;13.240;2023-03-01T07:34:54;15.48;;;5.05;;
75645;SDS011;64237;52.438;13.240;2023-03-01T07:37:22;11.60;;;5.10;;
75645;SDS011;64237;52.438;13.240;2023-03-01T07:39:50;14.02;;;5.20;;
75645;SDS011;64237;52.438;13.240;2023-03-01T07:42:15;14.45;;;5.57;;
75645;SDS011;64237;52.438;13.240;2023-03-01T07:44:44;15.60;;;5.00;;
75645;SDS011;64237;52.438;13.240;2023-03-01T07:47:09;15.65;;;5.28;;
75645;SDS011;64237;52.438;13.240;2023-03-01T07:49:35;12.50;;;5.45;;
75645;SDS011;64237;52.438;13.240;2023-03-01T07:52:00;13.57;;;5.30;;
75645;SDS011;64237;52.438;13.240;2023-03-01T07:54:25;15.50;;;6.10;;
75645;SDS011;64237;52.438;13.240;2023-03-01T07:56:51;13.95;;;5.38;;
75645;SDS011;64237;52.438;13.240;2023-03-01T07:59:16;13.68;;;5.60;;
75645;SDS011;64237;52.438;13.240;2023-03-01T08:01:42;14.82;;;5.43;;
75645;SDS011;64237;52.438;13.240;2023-03-01T08:04:10;15.00;;;6.00;;
75645;SDS011;64237;52.438;13.240;2023-03-01T08:06:35;13.02;;;5.70;;
75645;SDS011;64237;52.438;13.240;2023-03-01T08:09:02;14.43;;;4.82;;
75645;SDS011;64237;52.438;13.240;2023-03-01T08:11:27;14.40;;;4.70;;
75645;SDS011;64237;52.438;13.240;2023-03-01T08:13:55;11.77;;;5.28;;
75645;SDS011;64237;52.438;13.240;2023-03-01T08:16:22;11.77;;;4.70;;
75645;SDS011;64237;52.438;13.240;2023-03-01T08:18:50;11.70;;;4.53;;
75645;SDS011;64237;52.438;13.240;2023-03-01T08:21:16;15.13;;;4.72;;
75645;SDS011;64237;52.438;13.240;2023-03-01T08:23:43;15.18;;;5.20;;
75645;SDS011;64237;52.438;13.240;2023-03-01T08:28:39;13.73;;;5.00;;
75645;SDS011;64237;52.438;13.240;2023-03-01T08:33:42;12.85;;;4.07;;
75645;SDS011;64237;52.438;13.240;2023-03-01T08:36:10;11.55;;;3.97;;
75645;SDS011;64237;52.438;13.240;2023-03-01T08:38:51;8.77;;;3.35;;
75645;SDS011;64237;52.438;13.240;2023-03-01T08:41:19;8.55;;;3.30;;
75645;SDS011;64237;52.438;13.240;2023-03-01T08:43:44;8.90;;;3.53;;
75645;SDS011;64237;52.438;13.240;2023-03-01T08:46:10;6.68;;;2.80;;
75645;SDS011;64237;52.438;13.240;2023-03-01T08:48:36;7.82;;;3.10;;
75645;SDS011;64237;52.438;13.240;2023-03-01T08:51:12;9.82;;;3.63;;
75645;SDS011;64237;52.438;13.240;2023-03-01T08:53:45;11.68;;;3.55;;
75645;SDS011;64237;52.438;13.240;2023-03-01T08:56:14;9.07;;;2.92;;
75645;SDS011;64237;52.438;13.240;2023-03-01T08:58:42;8.00;;;2.85;;
75645;SDS011;64237;52.438;13.240;2023-03-01T09:01:10;8.48;;;3.20;;
75645;SDS011;64237;52.438;13.240;2023-03-01T09:03:36;9.52;;;2.80;;
75645;SDS011;64237;52.438;13.240;2023-03-01T09:06:02;7.97;;;2.85;;
75645;SDS011;64237;52.438;13.240;2023-03-01T09:08:29;10.52;;;2.72;;
75645;SDS011;64237;52.438;13.240;2023-03-01T09:13:29;9.18;;;2.55;;
75645;SDS011;64237;52.438;13.240;2023-03-01T09:15:58;9.20;;;2.72;;
75645;SDS011;64237;52.438;13.240;2023-03-01T09:18:24;8.18;;;3.08;;
75645;SDS011;64237;52.438;13.240;2023-03-01T09:20:49;7.40;;;2.53;;
75645;SDS011;64237;52.438;13.240;2023-03-01T09:23:20;8.10;;;2.97;;
75645;SDS011;64237;52.438;13.240;2023-03-01T09:25:46;8.23;;;2.90;;
75645;SDS011;64237;52.438;13.240;2023-03-01T09:28:11;6.75;;;2.55;;
75645;SDS011;64237;52.438;13.240;2023-03-01T09:30:40;9.13;;;2.90;;
75645;SDS011;64237;52.438;13.240;2023-03-01T09:33:05;8.30;;;2.50;;
75645;SDS011;64237;52.438;13.240;2023-03-01T09:35:33;8.30;;;2.57;;
75645;SDS011;64237;52.438;13.240;2023-03-01T09:37:59;7.03;;;2.47;;
75645;SDS011;64237;52.438;13.240;2023-03-01T09:40:24;6.43;;;2.40;;
75645;SDS011;64237;52.438;13.240;2023-03-01T09:45:55;4.82;;;1.73;;
75645;SDS011;64237;52.438;13.240;2023-03-01T09:50:51;6.28;;;2.22;;
75645;SDS011;64237;52.438;13.240;2023-03-01T09:53:18;6.40;;;1.90;;
75645;SDS011;64237;52.438;13.240;2023-03-01T09:55:57;7.13;;;2.25;;
75645;SDS011;64237;52.438;13.240;2023-03-01T09:58:31;4.45;;;2.03;;
75645;SDS011;64237;52.438;13.240;2023-03-01T10:06:47;5.82;;;1.67;;
75645;SDS011;64237;52.438;13.240;2023-03-01T10:09:27;5.85;;;2.05;;
75645;SDS011;64237;52.438;13.240;2023-03-01T10:11:57;4.68;;;1.65;;
75645;SDS011;64237;52.438;13.240;2023-03-01T10:16:58;8.27;;;2.20;;
75645;SDS011;64237;52.438;13.240;2023-03-01T10:22:04;7.30;;;2.38;;
75645;SDS011;64237;52.438;13.240;2023-03-01T10:24:47;5.53;;;1.63;;
75645;SDS011;64237;52.438;13.240;2023-03-01T10:27:20;5.03;;;1.98;;
75645;SDS011;64237;52.438;13.240;2023-03-01T10:30:11;7.25;;;1.90;;
75645;SDS011;64237;52.438;13.240;2023-03-01T10:32:42;4.82;;;1.88;;
75645;SDS011;64237;52.438;13.240;2023-03-01T10:35:22;4.50;;;1.75;;
75645;SDS011;64237;52.438;13.240;2023-03-01T10:40:23;6.20;;;2.28;;
75645;SDS011;64237;52.438;13.240;2023-03-01T10:42:49;5.53;;;2.10;;
75645;SDS011;64237;52.438;13.240;2023-03-01T10:48:19;5.80;;;2.15;;
75645;SDS011;64237;52.438;13.240;2023-03-01T10:51:14;10.73;;;2.95;;
75645;SDS011;64237;52.438;13.240;2023-03-01T10:53:48;6.35;;;2.42;;
75645;SDS011;64237;52.438;13.240;2023-03-01T10:56:15;5.90;;;2.28;;
75645;SDS011;64237;52.438;13.240;2023-03-01T11:01:30;7.78;;;2.85;;
75645;SDS011;64237;52.438;13.240;2023-03-01T11:06:33;7.65;;;2.45;;
75645;SDS011;64237;52.438;13.240;2023-03-01T11:11:45;6.88;;;2.25;;
75645;SDS011;64237;52.438;13.240;2023-03-01T11:14:26;8.05;;;2.55;;
75645;SDS011;64237;52.438;13.240;2023-03-01T11:17:01;7.90;;;2.67;;
75645;SDS011;64237;52.438;13.240;2023-03-01T11:22:50;8.07;;;2.70;;
75645;SDS011;64237;52.438;13.240;2023-03-01T11:25:19;7.93;;;2.30;;
75645;SDS011;64237;52.438;13.240;2023-03-01T11:27:49;7.43;;;2.83;;
75645;SDS011;64237;52.438;13.240;2023-03-01T11:33:24;6.57;;;2.33;;
75645;SDS011;64237;52.438;13.240;2023-03-01T11:36:08;7.03;;;2.33;;
75645;SDS011;64237;52.438;13.240;2023-03-01T11:38:41;5.75;;;2.25;;
75645;SDS011;64237;52.438;13.240;2023-03-01T11:41:11;6.97;;;2.13;;
75645;SDS011;64237;52.438;13.240;2023-03-01T11:49:20;7.75;;;2.53;;
75645;SDS011;64237;52.438;13.240;2023-03-01T12:06:08;5.88;;;1.90;;
75645;SDS011;64237;52.438;13.240;2023-03-01T12:17:34;7.75;;;2.17;;
75645;SDS011;64237;52.438;13.240;2023-03-01T12:20:26;6.05;;;2.10;;
75645;SDS011;64237;52.438;13.240;2023-03-01T12:28:35;5.80;;;2.30;;
75645;SDS011;64237;52.438;13.240;2023-03-01T12:47:42;5.82;;;2.40;;
75645;SDS011;64237;52.438;13.240;2023-03-01T12:50:36;6.18;;;2.58;;
75645;SDS011;64237;52.438;13.240;2023-03-01T12:53:07;5.70;;;2.85;;
75645;SDS011;64237;52.438;13.240;2023-03-01T12:55:45;6.93;;;2.30;;
75645;SDS011;64237;52.438;13.240;2023-03-01T13:03:51;8.90;;;2.80;;
75645;SDS011;64237;52.438;13.240;2023-03-01T13:06:31;5.93;;;2.38;;
75645;SDS011;64237;52.438;13.240;2023-03-01T13:17:51;5.38;;;2.20;;
75645;SDS011;64237;52.438;13.240;2023-03-01T13:23:09;4.30;;;1.80;;
75645;SDS011;64237;52.438;13.240;2023-03-01T13:25:59;5.43;;;2.05;;
75645;SDS011;64237;52.438;13.240;2023-03-01T13:31:04;6.18;;;2.13;;
75645;SDS011;64237;52.438;13.240;2023-03-01T13:35:59;7.35;;;2.10;;
75645;SDS011;64237;52.438;13.240;2023-03-01T13:41:16;4.75;;;1.90;;
75645;SDS011;64237;52.438;13.240;2023-03-01T13:44:02;5.63;;;2.03;;
75645;SDS011;64237;52.438;13.240;2023-03-01T13:46:40;6.78;;;2.28;;
75645;SDS011;64237;52.438;13.240;2023-03-01T13:49:09;4.65;;;2.00;;
75645;SDS011;64237;52.438;13.240;2023-03-01T13:51:40;4.47;;;2.00;;
75645;SDS011;64237;52.438;13.240;2023-03-01T13:54:09;5.50;;;2.30;;
75645;SDS011;64237;52.438;13.240;2023-03-01T13:56:40;6.90;;;2.45;;
75645;SDS011;64237;52.438;13.240;2023-03-01T13:59:12;6.85;;;2.35;;
75645;SDS011;64237;52.438;13.240;2023-03-01T14:01:43;6.57;;;2.25;;
75645;SDS011;64237;52.438;13.240;2023-03-01T14:06:51;5.97;;;2.05;;
75645;SDS011;64237;52.438;13.240;2023-03-01T14:09:33;5.57;;;2.15;;
75645;SDS011;64237;52.438;13.240;2023-03-01T14:21:01;4.60;;;1.90;;
75645;SDS011;64237;52.438;13.240;2023-03-01T14:23:32;4.95;;;1.80;;
75645;SDS011;64237;52.438;13.240;2023-03-01T14:26:00;5.00;;;2.15;;
75645;SDS011;64237;52.438;13.240;2023-03-01T14:28:26;7.78;;;2.58;;
75645;SDS011;64237;52.438;13.240;2023-03-01T14:30:57;6.25;;;2.20;;
75645;SDS011;64237;52.438;13.240;2023-03-01T14:33:28;9.27;;;2.42;;
75645;SDS011;64237;52.438;13.240;2023-03-01T14:35:56;5.38;;;2.03;;
75645;SDS011;64237;52.438;13.240;2023-03-01T14:38:35;6.05;;;2.08;;
75645;SDS011;64237;52.438;13.240;2023-03-01T14:46:38;5.15;;;1.95;;
75645;SDS011;64237;52.438;13.240;2023-03-01T14:49:27;5.45;;;1.90;;
75645;SDS011;64237;52.438;13.240;2023-03-01T14:52:02;7.95;;;1.80;;
75645;SDS011;64237;52.438;13.240;2023-03-01T14:54:39;6.55;;;2.00;;
75645;SDS011;64237;52.438;13.240;2023-03-01T15:00:00;5.80;;;2.10;;
75645;SDS011;64237;52.438;13.240;2023-03-01T15:02:30;5.85;;;2.42;;
75645;SDS011;64237;52.438;13.240;2023-03-01T15:05:00;4.10;;;1.63;;
75645;SDS011;64237;52.438;13.240;2023-03-01T15:07:33;4.47;;;1.45;;
75645;SDS011;64237;52.438;13.240;2023-03-01T15:10:02;4.40;;;2.08;;
75645;SDS011;64237;52.438;13.240;2023-03-01T15:15:19;4.63;;;1.40;;
75645;SDS011;64237;52.438;13.240;2023-03-01T15:17:57;5.03;;;1.77;;
75645;SDS011;64237;52.438;13.240;2023-03-01T15:20:25;6.38;;;1.60;;
75645;SDS011;64237;52.438;13.240;2023-03-01T15:22:56;4.47;;;1.70;;
75645;SDS011;64237;52.438;13.240;2023-03-01T15:25:32;5.57;;;1.90;;
75645;SDS011;64237;52.438;13.240;2023-03-01T15:28:01;4.53;;;1.60;;
75645;SDS011;64237;52.438;13.240;2023-03-01T15:35:54;3.65;;;1.40;;
75645;SDS011;64237;52.438;13.240;2023-03-01T15:38:50;5.60;;;1.50;;
75645;SDS011;64237;52.438;13.240;2023-03-01T15:41:26;4.05;;;1.45;;
75645;SDS011;64237;52.438;13.240;2023-03-01T15:43:56;3.35;;;1.30;;
75645;SDS011;64237;52.438;13.240;2023-03-01T15:46:30;3.13;;;1.23;;
75645;SDS011;64237;52.438;13.240;2023-03-01T15:49:05;5.15;;;1.67;;
75645;SDS011;64237;52.438;13.240;2023-03-01T15:52:04;3.00;;;1.17;;
75645;SDS011;64237;52.438;13.240;2023-03-01T15:54:38;4.75;;;1.30;;
75645;SDS011;64237;52.438;13.240;2023-03-01T15:57:08;3.15;;;1.35;;
75645;SDS011;64237;52.438;13.240;2023-03-01T15:59:41;5.68;;;1.52;;
75645;SDS011;64237;52.438;13.240;2023-03-01T16:02:10;6.30;;;1.88;;
75645;SDS011;64237;52.438;13.240;2023-03-01T16:04:37;4.68;;;1.65;;
75645;SDS011;64237;52.438;13.240;2023-03-01T16:07:03;4.03;;;1.58;;
75645;SDS011;64237;52.438;13.240;2023-03-01T16:09:28;5.07;;;1.60;;
75645;SDS011;64237;52.438;13.240;2023-03-01T16:11:57;10.60;;;2.47;;
75645;SDS011;64237;52.438;13.240;2023-03-01T16:14:34;11.30;;;2.35;;
75645;SDS011;64237;52.438;13.240;2023-03-01T16:17:00;6.72;;;2.33;;
75645;SDS011;64237;52.438;13.240;2023-03-01T16:19:25;6.77;;;2.53;;
75645;SDS011;64237;52.438;13.240;2023-03-01T16:21:53;9.67;;;3.10;;
75645;SDS011;64237;52.438;13.240;2023-03-01T16:24:19;9.00;;;3.10;;
75645;SDS011;64237;52.438;13.240;2023-03-01T16:26:47;8.47;;;3.10;;
75645;SDS011;64237;52.438;13.240;2023-03-01T16:29:12;11.45;;;3.72;;
75645;SDS011;64237;52.438;13.240;2023-03-01T16:31:37;12.88;;;3.90;;
75645;SDS011;64237;52.438;13.240;2023-03-01T16:34:03;13.35;;;4.47;;
75645;SDS011;64237;52.438;13.240;2023-03-01T16:36:31;13.35;;;4.47;;
75645;SDS011;64237;52.438;13.240;2023-03-01T16:38:59;19.33;;;5.38;;
75645;SDS011;64237;52.438;13.240;2023-03-01T16:41:31;17.17;;;5.40;;
75645;SDS011;64237;52.438;13.240;2023-03-01T16:44:00;16.15;;;5.22;;
75645;SDS011;64237;52.438;13.240;2023-03-01T16:46:26;15.15;;;4.95;;
75645;SDS011;64237;52.438;13.240;2023-03-01T16:48:56;20.55;;;6.00;;
75645;SDS011;64237;52.438;13.240;2023-03-01T16:51:22;19.30;;;6.13;;
75645;SDS011;64237;52.438;13.240;2023-03-01T16:53:48;22.60;;;7.35;;
75645;SDS011;64237;52.438;13.240;2023-03-01T16:56:18;17.15;;;5.50;;
75645;SDS011;64237;52.438;13.240;2023-03-01T17:01:14;14.55;;;3.45;;
75645;SDS011;64237;52.438;13.240;2023-03-01T17:03:45;14.15;;;3.10;;
75645;SDS011;64237;52.438;13.240;2023-03-01T17:06:15;10.93;;;2.95;;
75645;SDS011;64237;52.438;13.240;2023-03-01T17:08:42;9.68;;;2.97;;
75645;SDS011;64237;52.438;13.240;2023-03-01T17:11:09;8.60;;;2.50;;
75645;SDS011;64237;52.438;13.240;2023-03-01T17:13:46;6.32;;;2.15;;
75645;SDS011;64237;52.438;13.240;2023-03-01T17:16:13;5.53;;;2.03;;
75645;SDS011;64237;52.438;13.240;2023-03-01T17:18:44;8.65;;;2.20;;
75645;SDS011;64237;52.438;13.240;2023-03-01T17:21:12;5.72;;;1.92;;